Time;durP1;ratioP1;P1;durP2;ratioP2;P2;SDS_P1;SDS_P2;PMS_P1;PMS_P2;Temp;Humidity;BMP_temperature;BMP_pressure;BME280_temperature;BME280_humidity;BME280_pressure;Samples;Min_cycle;Max_cycle;Signal;HPM_P1;HPM_P2
2022/10/12 00:00:52;;;;;;;;;;;3.80;99.90;;;2.04;100.00;101776.06;4961577;28;19918;-77
2022/10/12 00:03:18;;;;;;;;;;;3.80;99.90;;;2.21;100.00;101798.84;4961790;28;19929;-77
2022/10/12 00:05:45;;;;;;;;;;;3.80;99.90;;;2.24;100.00;101793.19;4965272;28;20017;-77
2022/10/12 00:08:11;;;;;;;;;;;3.80;99.90;;;2.21;100.00;101792.63;4966864;28;20086;-78
2022/10/12 00:10:41;;;;;;;;;;;3.80;99.90;;;2.08;100.00;101792.81;4966891;28;19918;-77
2022/10/12 00:13:08;;;;;;;;;;;3.70;99.90;;;2.01;100.00;101792.50;4967065;28;19922;-76
2022/10/12 00:15:39;;;;;;;;;;;3.60;99.90;;;1.98;100.00;101803.53;4976334;28;19918;-77
2022/10/12 00:18:05;;;;;;;;;;;3.50;99.90;;;1.89;100.00;101798.94;4982837;28;19926;-78
2022/10/12 00:20:31;;;;;;;;;;;3.40;99.90;;;1.88;100.00;101799.94;4980246;28;19918;-76
2022/10/12 00:22:57;;;;;;;;;;;3.40;99.90;;;1.89;100.00;101804.31;4976248;28;19918;-78
2022/10/12 00:25:23;;;;;;;;;;;3.40;99.90;;;1.93;100.00;101805.78;4974635;28;19953;-77
2022/10/12 00:27:48;;;;;;;;;;;3.50;99.90;;;2.00;100.00;101807.81;4975055;28;20341;-77
2022/10/12 00:30:14;;;;;;;;;;;3.60;99.90;;;2.10;100.00;101809.69;4974867;28;20313;-78
2022/10/12 00:32:39;;;;;;;;;;;3.70;99.90;;;2.14;100.00;101805.75;4975365;28;19944;-78
2022/10/12 00:35:05;;;;;;;;;;;3.70;99.90;;;2.05;100.00;101809.25;4976691;28;19956;-78
2022/10/12 00:37:31;;;;;;;;;;;3.70;99.90;;;1.86;100.00;101809.00;4973425;28;19980;-78
2022/10/12 00:39:57;;;;;;;;;;;3.50;99.90;;;1.70;100.00;101806.72;4971543;28;19925;-78
2022/10/12 00:42:22;;;;;;;;;;;3.30;99.90;;;1.55;100.00;101808.03;4974574;28;20448;-77
2022/10/12 00:44:50;;;;;;;;;;;3.20;99.90;;;1.53;100.00;101804.63;4978005;28;19925;-78
2022/10/12 00:47:26;;;;;;;;;;;3.10;99.90;;;1.44;100.00;101800.88;4973711;28;19988;-77
2022/10/12 00:50:16;;;;;;;;;;;3.00;99.90;;;1.35;100.00;101804.34;4977245;28;20004;-76
2022/10/12 00:53:02;;;;;;;;;;;2.90;99.90;;;1.27;100.00;101805.81;4974896;28;20431;-76
2022/10/12 00:55:33;;;;;;;;;;;2.80;99.90;;;1.30;100.00;101804.69;4981541;28;19944;-76
2022/10/12 00:57:59;;;;;;;;;;;2.80;99.90;;;1.24;100.00;101797.16;4977142;28;19929;-76
2022/10/12 01:00:25;;;;;;;;;;;2.90;99.90;;;1.22;100.00;101802.66;4973585;28;19922;-76
2022/10/12 01:02:53;;;;;;;;;;;2.80;99.90;;;1.19;100.00;101807.41;4971401;28;20004;-77
2022/10/12 01:05:20;;;;;;;;;;;2.80;99.90;;;1.12;100.00;101807.09;4978443;28;21436;-76
2022/10/12 01:07:45;;;;;;;;;;;2.70;99.90;;;1.09;100.00;101808.19;4975526;28;19925;-76
2022/10/12 01:10:12;;;;;;;;;;;2.70;99.90;;;1.03;100.00;101787.19;4972090;28;19918;-75
2022/10/12 01:12:41;;;;;;;;;;;2.70;99.90;;;1.10;100.00;101804.50;4967472;28;20337;-75
2022/10/12 01:15:08;;;;;;;;;;;2.70;99.90;;;1.11;100.00;101805.38;4967669;28;20440;-76
2022/10/12 01:18:01;;;;;;;;;;;2.70;99.90;;;1.10;100.00;101798.28;4969142;28;19930;-76
2022/10/12 01:21:04;;;;;;;;;;;2.80;99.90;;;1.09;100.00;101804.66;4981506;28;20507;-76
2022/10/12 01:23:39;;;;;;;;;;;2.70;99.90;;;1.19;100.00;101802.03;4974668;28;19937;-75
2022/10/12 01:26:29;;;;;;;;;;;2.70;99.90;;;1.18;100.00;101803.00;4964732;28;20013;-76
2022/10/12 01:29:20;;;;;;;;;;;2.80;99.90;;;1.07;100.00;101790.50;4966682;28;20270;-75
2022/10/12 01:32:02;;;;;;;;;;;2.70;99.90;;;1.26;100.00;101809.47;4968496;28;19919;-76
2022/10/12 01:35:00;;;;;;;;;;;2.80;99.90;;;1.41;100.00;101795.75;4977068;28;19919;-75
2022/10/12 01:37:52;;;;;;;;;;;3.00;99.90;;;1.33;100.00;101765.97;4977641;28;20384;-76
2022/10/12 01:40:40;;;;;;;;;;;3.10;99.90;;;1.53;100.00;101800.06;4969157;28;20326;-76
2022/10/12 01:43:07;;;;;;;;;;;3.10;99.90;;;1.61;100.00;101795.91;4975722;28;20056;-75
2022/10/12 01:45:33;;;;;;;;;;;3.20;99.90;;;1.67;100.00;101793.53;4973359;28;19957;-77
2022/10/12 01:48:00;;;;;;;;;;;3.20;99.90;;;1.79;100.00;101791.63;4982723;28;19984;-76
2022/10/12 01:50:51;;;;;;;;;;;3.40;99.90;;;1.84;100.00;101792.09;4979128;28;19929;-76
2022/10/12 01:53:46;;;;;;;;;;;3.40;99.90;;;1.78;100.00;101786.41;4972107;28;20039;-75
2022/10/12 01:56:20;;;;;;;;;;;3.40;99.90;;;1.71;100.00;101789.59;4965881;28;19928;-76
2022/10/12 01:59:13;;;;;;;;;;;3.30;99.90;;;1.60;100.00;101788.81;4980031;28;19983;-76
2022/10/12 02:01:39;;;;;;;;;;;3.20;99.90;;;1.63;100.00;101773.25;4973540;28;19930;-76
2022/10/12 02:04:12;;;;;;;;;;;3.20;99.90;;;1.43;100.00;101778.47;4975767;28;20018;-76
2022/10/12 02:06:44;;;;;;;;;;;3.00;99.90;;;1.27;100.00;101781.59;4984405;28;19924;-76
2022/10/12 02:09:19;;;;;;;;;;;2.90;99.90;;;1.10;100.00;101774.09;4978467;28;19925;-75
2022/10/12 02:11:49;;;;;;;;;;;2.70;99.90;;;1.10;100.00;101783.00;4976964;28;20432;-75
2022/10/12 02:14:20;;;;;;;;;;;2.70;99.90;;;1.07;100.00;101785.09;4977564;28;20439;-76
2022/10/12 02:17:03;;;;;;;;;;;2.60;99.90;;;1.06;100.00;101775.31;4981175;28;19961;-77
2022/10/12 02:19:34;;;;;;;;;;;2.60;99.90;;;0.96;100.00;101761.81;4982442;28;20377;-76
2022/10/12 02:22:04;;;;;;;;;;;2.60;99.90;;;1.08;100.00;101784.13;4975262;28;19965;-76
2022/10/12 02:24:33;;;;;;;;;;;2.60;99.90;;;1.02;100.00;101780.09;4971568;28;20557;-77
2022/10/12 02:26:59;;;;;;;;;;;2.60;99.90;;;0.93;100.00;101776.34;4970729;28;20543;-76
2022/10/12 02:29:45;;;;;;;;;;;2.50;99.90;;;0.85;100.00;101771.56;4968772;28;20440;-76
2022/10/12 02:32:39;;;;;;;;;;;2.40;99.90;;;0.84;100.00;101767.19;4971591;28;20352;-77
2022/10/12 02:35:13;;;;;;;;;;;2.40;99.90;;;0.91;100.00;101764.84;4973128;28;19949;-76
2022/10/12 02:37:52;;;;;;;;;;;2.50;99.90;;;0.80;100.00;101757.66;4981710;28;20301;-77
2022/10/12 02:40:22;;;;;;;;;;;2.50;99.90;;;0.73;100.00;101763.66;4972219;28;20447;-77
2022/10/12 02:43:00;;;;;;;;;;;2.40;99.90;;;0.71;100.00;101756.59;4963649;28;19924;-77
2022/10/12 02:45:27;;;;;;;;;;;2.40;99.90;;;0.61;100.00;101749.38;4965496;28;20344;-77
2022/10/12 02:47:55;;;;;;;;;;;2.30;99.90;;;0.55;100.00;101746.22;4970566;28;20367;-76
2022/10/12 02:50:23;;;;;;;;;;;2.20;99.90;;;0.57;100.00;101746.13;4972051;28;19969;-75
2022/10/12 02:52:51;;;;;;;;;;;2.20;99.90;;;0.45;100.00;101736.34;4974000;28;19922;-76
2022/10/12 02:55:17;;;;;;;;;;;2.20;99.90;;;0.49;100.00;101757.47;4971704;28;20285;-76
2022/10/12 02:57:43;;;;;;;;;;;2.10;99.90;;;0.42;100.00;101757.09;4970427;28;19918;-76
2022/10/12 03:00:09;;;;;;;;;;;2.00;99.90;;;0.34;100.00;101748.81;4966182;28;19961;-76
2022/10/12 03:02:35;;;;;;;;;;;2.00;99.90;;;0.34;100.00;101756.88;4976733;28;20471;-75
2022/10/12 03:05:01;;;;;;;;;;;1.90;99.90;;;0.25;100.00;101750.41;4975239;28;19945;-75
2022/10/12 03:07:26;;;;;;;;;;;1.90;99.90;;;0.19;100.00;101744.66;4972153;28;19918;-75
2022/10/12 03:09:52;;;;;;;;;;;1.80;99.90;;;0.15;100.00;101749.44;4970603;28;20329;-76
2022/10/12 03:12:18;;;;;;;;;;;1.70;99.90;;;0.12;100.00;101739.78;4971477;28;20276;-76
2022/10/12 03:14:43;;;;;;;;;;;1.80;99.90;;;0.22;100.00;101744.41;4965093;28;20008;-76
2022/10/12 03:17:09;;;;;;;;;;;1.80;99.90;;;0.15;100.00;101738.69;4966869;28;19926;-76
2022/10/12 03:19:37;;;;;;;;;;;1.80;99.90;;;0.13;100.00;101736.13;4970411;28;19922;-75
2022/10/12 03:22:02;;;;;;;;;;;1.80;99.90;;;0.18;100.00;101737.59;4974016;28;19918;-76
2022/10/12 03:24:28;;;;;;;;;;;1.90;99.90;;;0.30;100.00;101728.56;4974052;28;19938;-78
2022/10/12 03:26:54;;;;;;;;;;;1.90;99.90;;;0.37;100.00;101729.78;4966736;28;19966;-78
2022/10/12 03:29:19;;;;;;;;;;;2.00;99.90;;;0.52;100.00;101740.25;4968272;28;19945;-77
2022/10/12 03:31:45;;;;;;;;;;;2.10;99.90;;;0.55;100.00;101740.03;4970702;28;19917;-77
2022/10/12 03:34:11;;;;;;;;;;;2.20;99.90;;;0.43;100.00;101731.13;4967174;28;19918;-74
2022/10/12 03:36:36;;;;;;;;;;;2.10;99.90;;;0.45;100.00;101729.16;4981038;28;19930;-77
2022/10/12 03:39:02;;;;;;;;;;;2.10;99.90;;;0.53;100.00;101731.22;4965753;28;19926;-77
2022/10/12 03:41:28;;;;;;;;;;;2.20;99.90;;;0.43;100.00;101718.53;4976176;28;19928;-77
2022/10/12 03:43:56;;;;;;;;;;;2.20;99.90;;;0.51;100.00;101728.66;4972307;28;19918;-77
2022/10/12 03:46:22;;;;;;;;;;;2.20;99.90;;;0.52;100.00;101724.13;4974932;28;19964;-78
2022/10/12 03:48:47;;;;;;;;;;;2.20;99.90;;;0.46;100.00;101719.25;4970474;28;19953;-77
2022/10/12 03:51:13;;;;;;;;;;;2.20;99.90;;;0.43;100.00;101715.00;4965505;28;20423;-76
2022/10/12 03:53:39;;;;;;;;;;;2.20;99.90;;;0.30;100.00;101717.84;4968785;28;19925;-77
2022/10/12 03:56:04;;;;;;;;;;;2.00;99.90;;;0.25;100.00;101718.19;4978344;28;19918;-79
2022/10/12 03:58:30;;;;;;;;;;;2.00;99.90;;;0.22;100.00;101717.56;4976965;28;19953;-79
2022/10/12 04:00:56;;;;;;;;;;;1.90;99.90;;;0.18;100.00;101721.47;4992048;28;19917;-78
2022/10/12 04:03:21;;;;;;;;;;;1.90;99.90;;;0.17;100.00;101719.78;4984678;28;19932;-79
2022/10/12 04:05:55;;;;;;;;;;;1.90;99.90;;;0.09;100.00;101723.94;4981045;28;19926;-79
2022/10/12 04:08:21;;;;;;;;;;;1.80;99.90;;;0.02;100.00;101717.34;4989629;28;19917;-79
2022/10/12 04:10:49;;;;;;;;;;;1.70;99.90;;;0.05;100.00;101708.19;4986676;28;19921;-78
2022/10/12 04:13:16;;;;;;;;;;;1.80;99.90;;;0.10;100.00;101712.22;4988207;28;19926;-78
2022/10/12 04:15:41;;;;;;;;;;;1.80;99.90;;;0.05;100.00;101719.78;4990304;28;19926;-78
2022/10/12 04:18:07;;;;;;;;;;;1.70;99.90;;;0.05;100.00;101726.97;4981449;28;19980;-78
2022/10/12 04:20:33;;;;;;;;;;;1.70;99.90;;;0.02;100.00;101717.34;4980771;28;19957;-78
2022/10/12 04:22:58;;;;;;;;;;;1.70;99.90;;;-0.02;100.00;101707.81;4976161;28;19925;-78
2022/10/12 04:25:24;;;;;;;;;;;1.70;99.90;;;-0.03;100.00;101717.69;4975588;28;19957;-78
2022/10/12 04:27:50;;;;;;;;;;;1.70;99.90;;;-0.09;100.00;101717.31;4972599;28;20033;-78
2022/10/12 04:30:15;;;;;;;;;;;1.60;99.90;;;-0.06;100.00;101701.84;4969258;28;19968;-78
2022/10/12 04:32:41;;;;;;;;;;;1.70;99.90;;;0.10;100.00;101709.53;4976927;28;19922;-78
2022/10/12 04:35:07;;;;;;;;;;;1.80;99.90;;;0.18;100.00;101716.97;4972792;28;20009;-78
2022/10/12 04:37:32;;;;;;;;;;;1.80;99.90;;;0.20;100.00;101717.72;4978282;28;20000;-78
2022/10/12 04:39:58;;;;;;;;;;;1.90;99.90;;;0.14;100.00;101712.84;4971243;28;19918;-78
2022/10/12 04:42:24;;;;;;;;;;;1.80;99.90;;;0.12;100.00;101712.94;4979456;28;20242;-78
2022/10/12 04:44:49;;;;;;;;;;;1.80;99.90;;;0.10;100.00;101704.16;4967002;28;19922;-78
2022/10/12 04:47:15;;;;;;;;;;;1.80;99.90;;;0.16;100.00;101712.69;4971635;28;19929;-78
2022/10/12 04:49:41;;;;;;;;;;;1.80;99.90;;;0.20;100.00;101716.84;4975832;28;20037;-78
2022/10/12 04:52:06;;;;;;;;;;;1.80;99.90;;;0.22;100.00;101710.38;4970436;28;20424;-78
2022/10/12 04:54:32;;;;;;;;;;;1.90;99.90;;;0.28;100.00;101714.41;4975913;28;20427;-78
2022/10/12 04:56:58;;;;;;;;;;;1.90;99.90;;;0.15;100.00;101717.22;4977586;28;20214;-79
2022/10/12 04:59:23;;;;;;;;;;;1.90;99.90;;;0.11;100.00;101716.59;4971909;28;20400;-78
2022/10/12 05:01:49;;;;;;;;;;;1.80;99.90;;;0.07;100.00;101716.97;4986690;28;19918;-80
2022/10/12 05:04:15;;;;;;;;;;;1.70;99.90;;;0.02;100.00;101711.97;4979482;28;20658;-82
2022/10/12 05:06:40;;;;;;;;;;;1.70;99.90;;;-0.01;100.00;101712.19;4974591;28;19922;-79
2022/10/12 05:09:06;;;;;;;;;;;1.70;99.90;;;-0.12;100.00;101706.84;4968002;28;19918;-80
2022/10/12 05:11:32;;;;;;;;;;;1.50;99.90;;;-0.09;100.00;101712.81;4987548;28;20238;-79
2022/10/12 05:13:57;;;;;;;;;;;1.60;99.90;;;-0.10;100.00;101708.44;4982367;28;19914;-79
2022/10/12 05:16:23;;;;;;;;;;;1.60;99.90;;;-0.11;100.00;101701.34;4976466;28;19925;-79
2022/10/12 05:18:49;;;;;;;;;;;1.60;99.90;;;-0.08;100.00;101714.53;4978888;28;19925;-80
2022/10/12 05:21:15;;;;;;;;;;;1.60;99.90;;;-0.08;100.00;101710.97;4981347;28;19918;-77
2022/10/12 05:23:40;;;;;;;;;;;1.60;99.90;;;-0.15;100.00;101700.72;4979606;28;19922;-82
2022/10/12 05:26:06;;;;;;;;;;;1.50;99.90;;;-0.15;100.00;101702.56;4971689;28;19929;-79
2022/10/12 05:28:32;;;;;;;;;;;1.50;99.90;;;-0.09;100.00;101703.91;4976556;28;20011;-77
2022/10/12 05:30:58;;;;;;;;;;;1.60;99.90;;;0.07;100.00;101712.47;4974538;28;20358;-78
2022/10/12 05:33:23;;;;;;;;;;;1.70;99.90;;;0.10;100.00;101706.84;4967612;28;19919;-79
2022/10/12 05:35:49;;;;;;;;;;;1.80;99.90;;;0.20;100.00;101708.78;4978541;28;19926;-77
2022/10/12 05:38:15;;;;;;;;;;;1.80;99.90;;;0.22;100.00;101701.47;4971990;28;19929;-78
2022/10/12 05:40:40;;;;;;;;;;;1.90;99.90;;;0.14;100.00;101710.16;4967793;28;19969;-78
2022/10/12 05:43:06;;;;;;;;;;;1.80;99.90;;;0.13;100.00;101705.72;4972976;28;19925;-79
2022/10/12 05:45:32;;;;;;;;;;;1.80;99.90;;;0.14;100.00;101699.41;4981391;28;20389;-78
2022/10/12 05:47:57;;;;;;;;;;;1.80;99.90;;;0.18;100.00;101705.38;4969053;28;20357;-78
2022/10/12 05:50:23;;;;;;;;;;;1.80;99.90;;;0.20;100.00;101693.56;4973199;28;20262;-78
2022/10/12 05:52:48;;;;;;;;;;;1.90;99.90;;;0.36;100.00;101701.22;4964017;28;20005;-79
2022/10/12 05:55:14;;;;;;;;;;;2.00;99.90;;;0.40;100.00;101705.34;4971270;28;19925;-78
2022/10/12 05:57:40;;;;;;;;;;;2.10;99.90;;;0.39;100.00;101697.41;4969395;28;19926;-79
2022/10/12 06:00:07;;;;;;;;;;;2.10;99.90;;;0.39;100.00;101698.28;4972644;28;19917;-79
2022/10/12 06:02:35;;;;;;;;;;;2.10;99.90;;;0.37;100.00;101689.50;4974071;28;19918;-79
2022/10/12 06:05:01;;;;;;;;;;;2.10;99.90;;;0.41;100.00;101690.97;4965438;28;19918;-79
2022/10/12 06:07:27;;;;;;;;;;;2.10;99.90;;;0.43;100.00;101696.22;4965888;28;20307;-79
2022/10/12 06:09:53;;;;;;;;;;;2.20;99.90;;;0.33;100.00;101671.94;4971592;28;20017;-79
2022/10/12 06:12:19;;;;;;;;;;;2.10;99.90;;;0.51;100.00;101690.19;4971099;28;19929;-79
2022/10/12 06:14:44;;;;;;;;;;;2.20;99.90;;;0.64;100.00;101693.59;4978133;28;20350;-79
2022/10/12 06:17:10;;;;;;;;;;;2.30;99.90;;;0.70;100.00;101701.16;4971639;28;19922;-79
2022/10/12 06:19:36;;;;;;;;;;;2.40;99.90;;;0.77;100.00;101695.25;4966042;28;20020;-79
2022/10/12 06:22:02;;;;;;;;;;;2.40;99.90;;;0.88;100.00;101697.94;4968676;28;20288;-79
2022/10/12 06:24:27;;;;;;;;;;;2.50;99.90;;;0.92;100.00;101694.00;4967320;28;19933;-79
2022/10/12 06:26:53;;;;;;;;;;;2.60;99.90;;;1.03;100.00;101692.25;4969610;28;19927;-79
2022/10/12 06:29:22;;;;;;;;;;;2.70;99.90;;;1.08;100.00;101692.75;4963287;28;19922;-80
2022/10/12 06:31:48;;;;;;;;;;;2.80;99.90;;;1.19;100.00;101697.19;4965890;28;20000;-79
2022/10/12 06:34:14;;;;;;;;;;;2.80;99.90;;;1.31;100.00;101698.84;4965579;28;19925;-80
2022/10/12 06:36:39;;;;;;;;;;;3.00;99.90;;;1.29;100.00;101690.91;4966420;28;19922;-80
2022/10/12 06:39:05;;;;;;;;;;;3.00;99.90;;;1.42;100.00;101701.47;4967669;28;19926;-80
2022/10/12 06:41:31;;;;;;;;;;;3.10;99.90;;;1.53;100.00;101699.72;4967937;28;19919;-80
2022/10/12 06:43:57;;;;;;;;;;;3.20;99.90;;;1.58;100.00;101695.63;4966323;28;19918;-80
2022/10/12 06:46:23;;;;;;;;;;;3.20;99.90;;;1.62;100.00;101684.63;4964660;28;19918;-80
2022/10/12 06:48:49;;;;;;;;;;;3.30;99.90;;;1.75;100.00;101692.50;4962846;28;19964;-80
2022/10/12 06:51:15;;;;;;;;;;;3.40;99.90;;;1.91;100.00;101702.78;4963398;28;20178;-77
2022/10/12 06:53:40;;;;;;;;;;;3.50;99.90;;;1.98;100.00;101706.63;4969983;28;19938;-78
2022/10/12 06:56:07;;;;;;;;;;;3.60;99.90;;;2.05;100.00;101707.78;4967675;28;19953;-78
2022/10/12 06:58:33;;;;;;;;;;;3.70;99.90;;;2.12;100.00;101711.66;4966164;28;19922;-78
2022/10/12 07:01:07;;;;;;;;;;;3.70;99.90;;;2.20;100.00;101699.34;4967409;28;20274;-78
2022/10/12 07:03:33;;;;;;;;;;;3.80;99.90;;;2.33;100.00;101707.19;4967115;28;20009;-78
2022/10/12 07:06:10;;;;;;;;;;;3.90;99.90;;;2.42;100.00;101709.94;4965789;28;19937;-78
2022/10/12 07:08:36;;;;;;;;;;;4.00;99.90;;;2.50;100.00;101705.69;4961315;28;19922;-78
2022/10/12 07:11:03;;;;;;;;;;;4.10;99.90;;;2.67;100.00;101717.63;4963670;28;20341;-78
2022/10/12 07:13:30;;;;;;;;;;;4.20;99.90;;;2.65;100.00;101698.06;4963568;28;19918;-78
2022/10/12 07:15:56;;;;;;;;;;;4.40;99.90;;;2.87;100.00;101710.44;4967268;28;19976;-79
2022/10/12 07:18:22;;;;;;;;;;;4.50;99.90;;;2.94;100.00;101702.66;4965792;28;19922;-79
2022/10/12 07:20:48;;;;;;;;;;;4.50;99.90;;;2.98;100.00;101691.44;4966158;28;20349;-78
2022/10/12 07:23:15;;;;;;;;;;;4.60;99.90;;;3.16;100.00;101696.97;4967023;28;20034;-78
2022/10/12 07:25:46;;;;;;;;;;;4.80;99.90;;;3.22;100.00;101686.63;4969951;28;19943;-79
2022/10/12 07:28:12;;;;;;;;;;;4.90;99.90;;;3.42;100.00;101696.41;4967551;28;19925;-79
2022/10/12 07:30:38;;;;;;;;;;;5.00;99.90;;;3.52;100.00;101693.69;4963397;28;19922;-79
2022/10/12 07:33:03;;;;;;;;;;;5.20;99.90;;;3.70;100.00;101701.03;4964210;28;19930;-79
2022/10/12 07:35:29;;;;;;;;;;;5.30;99.90;;;3.79;100.00;101697.47;4969324;28;20292;-79
2022/10/12 07:37:55;;;;;;;;;;;5.40;99.90;;;3.92;100.00;101699.84;4966943;28;19941;-80
2022/10/12 07:40:20;;;;;;;;;;;5.50;99.90;;;3.89;100.00;101671.28;4967429;28;20222;-80
2022/10/12 07:42:46;;;;;;;;;;;5.60;99.90;;;4.12;100.00;101697.91;4966129;28;19945;-79
2022/10/12 07:45:11;;;;;;;;;;;5.70;99.90;;;4.30;100.00;101707.94;4967417;28;19926;-80
2022/10/12 07:47:37;;;;;;;;;;;5.80;99.90;;;4.36;100.00;101701.94;4967398;28;19937;-80
2022/10/12 07:50:03;;;;;;;;;;;6.00;99.90;;;4.54;100.00;101706.53;4971254;28;19977;-80
2022/10/12 07:52:31;;;;;;;;;;;6.10;99.90;;;4.61;100.00;101707.63;4966335;28;19921;-80
2022/10/12 07:54:56;;;;;;;;;;;6.20;99.90;;;4.73;100.00;101711.81;4964965;28;19918;-80
2022/10/12 07:57:22;;;;;;;;;;;6.30;99.90;;;4.70;100.00;101706.72;4968966;28;19922;-80
2022/10/12 07:59:48;;;;;;;;;;;6.40;99.90;;;4.84;100.00;101712.63;4966625;28;19922;-80
2022/10/12 08:02:13;;;;;;;;;;;6.40;99.90;;;4.95;100.00;101704.28;4967699;28;20290;-81
2022/10/12 08:04:39;;;;;;;;;;;6.50;99.90;;;5.11;100.00;101700.03;4966147;28;20369;-80
2022/10/12 08:07:05;;;;;;;;;;;6.70;99.90;;;5.19;100.00;101702.81;4968957;28;20345;-79
2022/10/12 08:09:31;;;;;;;;;;;6.80;99.90;;;5.24;100.00;101697.78;4967653;28;20294;-79
2022/10/12 08:11:56;;;;;;;;;;;6.90;99.90;;;5.38;100.00;101709.06;4966633;28;19976;-79
2022/10/12 08:14:22;;;;;;;;;;;6.90;99.90;;;5.50;100.00;101718.63;4968571;28;19929;-79
2022/10/12 08:16:48;;;;;;;;;;;7.10;99.90;;;5.67;100.00;101713.34;4965573;28;20049;-79
2022/10/12 08:19:14;;;;;;;;;;;7.20;99.90;;;5.69;100.00;101716.75;4964336;28;19926;-78
2022/10/12 08:21:41;;;;;;;;;;;7.30;99.90;;;5.97;100.00;101722.00;4961896;28;19969;-78
2022/10/12 08:24:08;;;;;;;;;;;7.50;99.90;;;6.01;100.00;101720.69;4961959;28;19918;-78
2022/10/12 08:26:34;;;;;;;;;;;7.60;99.90;;;6.13;100.00;101724.84;4962675;28;19918;-78
2022/10/12 08:29:01;;;;;;;;;;;7.70;99.90;;;6.28;100.00;101724.22;4963760;28;20396;-80
2022/10/12 08:31:27;;;;;;;;;;;7.70;99.90;;;6.55;100.00;101725.88;4962834;28;19949;-79
2022/10/12 08:33:53;;;;;;;;;;;7.90;99.90;;;6.75;100.00;101715.59;4966019;28;19960;-79
2022/10/12 08:36:19;;;;;;;;;;;8.20;99.90;;;6.85;100.00;101723.59;4968182;28;19926;-79
2022/10/12 08:38:49;;;;;;;;;;;8.30;99.90;;;7.07;100.00;101731.25;4972081;28;20033;-79
2022/10/12 08:41:52;;;;;;;;;;;8.50;99.90;;;7.26;100.00;101730.97;4973148;28;19918;-80
2022/10/12 08:44:42;;;;;;;;;;;8.60;99.90;;;7.45;100.00;101715.38;4973450;28;19933;-80
2022/10/12 08:47:16;;;;;;;;;;;8.80;99.90;;;7.52;100.00;101721.81;4973471;28;19957;-80
2022/10/12 08:49:44;;;;;;;;;;;8.80;99.90;;;7.77;100.00;101716.34;4972717;28;20420;-80
2022/10/12 08:52:32;;;;;;;;;;;9.00;99.90;;;7.99;100.00;101725.66;4974346;28;20395;-80
2022/10/12 08:55:04;;;;;;;;;;;9.20;99.90;;;8.17;100.00;101727.31;4985809;28;19968;-80
2022/10/12 08:57:30;;;;;;;;;;;9.30;99.90;;;8.42;100.00;101719.91;4982403;28;19925;-79
2022/10/12 08:59:55;;;;;;;;;;;9.60;99.90;;;8.56;100.00;101715.63;4971850;28;20055;-80
2022/10/12 09:02:48;;;;;;;;;;;9.70;99.90;;;8.89;100.00;101715.47;4971068;28;20773;-80
2022/10/12 09:05:53;;;;;;;;;;;10.00;99.90;;;9.30;100.00;101718.91;4986882;28;19922;-80
2022/10/12 09:08:33;;;;;;;;;;;10.30;99.90;;;9.49;100.00;101695.78;4963226;28;19918;-81
2022/10/12 09:11:25;;;;;;;;;;;10.60;99.90;;;9.81;100.00;101699.22;4972028;28;19964;-80
2022/10/12 09:14:07;;;;;;;;;;;10.90;99.90;;;10.18;100.00;101718.41;4964849;28;19918;-81
2022/10/12 09:16:38;;;;;;;;;;;11.10;99.90;;;10.39;100.00;101722.25;4976564;28;20294;-81
2022/10/12 09:19:28;;;;;;;;;;;11.30;99.90;;;10.64;95.68;101718.22;4972483;28;20036;-80
2022/10/12 09:21:55;;;;;;;;;;;11.60;99.90;;;10.81;90.08;101717.16;4964372;28;20352;-81
2022/10/12 09:24:31;;;;;;;;;;;11.90;99.90;;;10.85;91.25;101723.91;4970534;28;19994;-82
2022/10/12 09:26:59;;;;;;;;;;;12.00;99.90;;;10.99;90.40;101720.31;4968718;28;20328;-81
2022/10/12 09:29:26;;;;;;;;;;;12.20;99.90;;;11.30;88.64;101719.13;4966262;28;20021;-81
2022/10/12 09:32:21;;;;;;;;;;;12.40;99.90;;;12.00;82.80;101715.69;4967413;28;19925;-81
2022/10/12 09:34:47;;;;;;;;;;;12.80;99.90;;;12.22;79.07;101708.31;4967990;28;19918;-81
2022/10/12 09:37:22;;;;;;;;;;;13.40;99.90;;;12.63;82.35;101714.81;4971735;28;19918;-79
2022/10/12 09:39:48;;;;;;;;;;;14.20;99.90;;;12.97;75.78;101705.84;4978744;28;19922;-85
2022/10/12 09:42:15;;;;;;;;;;;15.40;99.90;;;13.15;73.77;101694.28;4976724;28;19918;-85
2022/10/12 09:44:45;;;;;;;;;;;;;;;13.60;74.99;101697.31;4979564;28;20400;-88
2022/10/12 09:47:19;;;;;;;;;;;16.30;99.90;;;14.33;69.29;101705.63;4984686;28;19922;-86
2022/10/12 09:49:49;;;;;;;;;;;;;;;15.07;65.39;101710.78;4970473;28;20340;-87
2022/10/12 09:52:17;;;;;;;;;;;;;;;16.46;59.55;101708.91;4982196;28;19929;-85
2022/10/12 09:54:52;;;;;;;;;;;18.30;95.20;;;17.64;55.05;101704.88;4980267;28;19957;-85
2022/10/12 09:57:36;;;;;;;;;;;20.80;81.90;;;19.36;48.64;101714.81;4984675;28;19925;-84
2022/10/12 10:00:21;;;;;;;;;;;21.10;76.80;;;20.33;48.46;101708.25;4976768;28;19930;-85
2022/10/12 10:02:48;;;;;;;;;;;21.40;79.50;;;21.67;43.25;101711.63;4986753;28;20298;-86
2022/10/12 10:05:27;;;;;;;;;;;;;;;22.74;38.91;101708.84;4991372;28;19922;-85
2022/10/12 10:08:11;;;;;;;;;;;;;;;23.29;37.00;101713.97;4979192;28;20029;-86
2022/10/12 10:10:46;;;;;;;;;;;;;;;23.16;34.38;101710.56;4985679;28;19917;-78
2022/10/12 10:13:14;;;;;;;;;;;22.20;74.90;;;23.57;36.60;101704.22;4981048;28;19922;-85
2022/10/12 10:15:42;;;;;;;;;;;;;;;23.66;34.41;101713.69;4979222;28;19925;-84
2022/10/12 10:18:34;;;;;;;;;;;;;;;24.30;33.99;101712.44;4983808;28;19930;-82
2022/10/12 10:21:01;;;;;;;;;;;;;;;23.38;33.34;101704.78;4977069;28;19980;-85
2022/10/12 10:23:33;;;;;;;;;;;;;;;24.21;35.40;101713.03;4972680;28;19910;-85
2022/10/12 10:26:07;;;;;;;;;;;;;;;24.34;32.58;101711.59;4978000;28;19918;-84
2022/10/12 10:28:34;;;;;;;;;;;;;;;24.70;31.30;101707.81;4985554;28;19914;-84
2022/10/12 10:31:05;;;;;;;;;;;;;;;24.78;33.54;101698.88;4983680;28;19922;-84
2022/10/12 10:33:33;;;;;;;;;;;;;;;24.84;34.47;101700.50;4972957;28;19910;-81
2022/10/12 10:36:05;;;;;;;;;;;;;;;24.89;31.98;101696.00;4975701;28;20183;-85
2022/10/12 10:38:43;;;;;;;;;;;;;;;24.20;31.59;101704.97;4979494;28;19953;-81
2022/10/12 10:41:16;;;;;;;;;;;;;;;22.87;33.84;101704.72;4975561;28;20381;-85
2022/10/12 10:43:45;;;;;;;;;;;;;;;21.89;36.54;101692.03;4968054;28;19914;-84
2022/10/12 10:46:13;;;;;;;;;;;23.90;67.10;;;19.64;39.06;101685.38;4977554;28;19922;-87
2022/10/12 10:48:55;;;;;;;;;;;22.60;61.60;;;19.08;40.80;101684.16;4973148;28;20501;-85
2022/10/12 10:51:21;;;;;;;;;;;21.20;65.50;;;20.45;39.52;101675.72;4974806;28;19929;-85
2022/10/12 10:53:49;;;;;;;;;;;21.30;66.70;;;21.16;37.23;101681.44;4973098;28;19929;-84
2022/10/12 10:56:15;;;;;;;;;;;;;;;23.16;36.25;101679.97;4976008;28;19937;-85
2022/10/12 10:58:53;;;;;;;;;;;;;;;24.33;34.92;101686.78;4974058;28;19933;-85
2022/10/12 11:01:22;;;;;;;;;;;;;;;24.31;30.68;101681.50;4973990;28;19926;-86
2022/10/12 11:03:59;;;;;;;;;;;;;;;23.64;32.99;101674.16;4971051;28;19915;-85
2022/10/12 11:06:36;;;;;;;;;;;;;;;23.34;33.62;101673.06;4971044;28;20074;-87
2022/10/12 11:09:11;;;;;;;;;;;;;;;23.73;34.06;101673.56;4989235;28;19929;-84
2022/10/12 11:11:39;;;;;;;;;;;;;;;24.40;31.75;101662.22;4974005;28;19918;-85
2022/10/12 11:14:19;;;;;;;;;;;;;;;24.04;32.99;101668.78;4969128;28;20439;-86
2022/10/12 11:16:57;;;;;;;;;;;;;;;24.02;34.42;101664.59;4963872;28;19961;-83
2022/10/12 11:19:36;;;;;;;;;;;;;;;23.60;33.99;101664.66;4976859;28;20043;-85
2022/10/12 11:22:18;;;;;;;;;;;;;;;24.35;33.82;101653.88;4967620;28;19922;-81
2022/10/12 11:24:46;;;;;;;;;;;;;;;25.49;30.48;101662.34;4962387;28;20064;-81
2022/10/12 11:27:27;;;;;;;;;;;;;;;24.82;30.04;101655.31;4968189;28;20033;-84
2022/10/12 11:29:55;;;;;;;;;;;;;;;23.24;33.27;101634.91;4970470;28;19922;-82
2022/10/12 11:32:26;;;;;;;;;;;;;;;24.35;33.15;101645.50;4959742;28;19925;-82
2022/10/12 11:34:56;;;;;;;;;;;;;;;24.88;29.72;101647.75;4960869;28;19929;-85
2022/10/12 11:37:27;;;;;;;;;;;;;;;24.48;29.84;101642.09;4969997;28;19922;-82